Time;durP1;ratioP1;P1;durP2;ratioP2;P2;SDS_P1;SDS_P2;PMS_P1;PMS_P2;Temp;Humidity;BMP_temperature;BMP_pressure;BME280_temperature;BME280_humidity;BME280_pressure;Samples;Min_cycle;Max_cycle;Signal;HPM_P1;HPM_P2
2023/04/04 00:00:58;;;;;;;8.90;5.10;;;;;;;-1.14;76.02;97133.20;109084;1275;22476;-83
2023/04/04 00:03:27;;;;;;;10.10;5.20;;;;;;;-1.15;76.34;97139.04;109126;1275;22660;-82
2023/04/04 00:05:55;;;;;;;8.40;4.70;;;;;;;-1.15;76.38;97141.36;109041;1270;50032;-83
2023/04/04 00:08:23;;;;;;;9.00;5.00;;;;;;;-1.16;76.50;97138.55;109127;1275;22591;-82
2023/04/04 00:10:57;;;;;;;11.90;6.20;;;;;;;-1.20;76.18;97145.05;109106;1272;22577;-83
2023/04/04 00:13:27;;;;;;;11.20;5.40;;;;;;;-1.24;76.42;97143.12;109171;1275;22557;-82
2023/04/04 00:15:56;;;;;;;11.40;6.20;;;;;;;-1.27;76.34;97141.94;109027;1269;47006;-83
2023/04/04 00:18:24;;;;;;;11.60;6.20;;;;;;;-1.28;76.77;97139.11;109130;1269;23677;-83
2023/04/04 00:20:52;;;;;;;10.70;5.30;;;;;;;-1.30;76.73;97140.61;109112;1275;23737;-82
2023/04/04 00:23:21;;;;;;;9.80;5.60;;;;;;;-1.31;76.92;97135.86;109154;1252;23281;-82
2023/04/04 00:25:52;;;;;;;13.30;6.80;;;;;;;-1.31;76.80;97138.09;109077;1253;22678;-82
2023/04/04 00:28:21;;;;;;;11.20;6.00;;;;;;;-1.30;76.71;97137.66;109162;1259;25313;-82
2023/04/04 00:30:49;;;;;;;11.10;5.60;;;;;;;-1.29;77.22;97136.15;109154;1272;22545;-82
2023/04/04 00:33:20;;;;;;;9.90;5.40;;;;;;;-1.29;76.99;97137.70;109107;1275;22520;-83
2023/04/04 00:35:49;;;;;;;12.80;6.30;;;;;;;-1.29;77.26;97140.27;109112;1272;23885;-82
2023/04/04 00:38:17;;;;;;;12.40;6.50;;;;;;;-1.33;77.34;97141.88;109064;1265;64358;-82
2023/04/04 00:40:47;;;;;;;15.20;7.00;;;;;;;-1.38;77.72;97141.97;109125;1275;22531;-82
2023/04/04 00:43:15;;;;;;;;;;;;;;;-1.46;77.92;97147.79;109120;1272;22554;-83
2023/04/04 00:45:43;;;;;;;13.30;7.30;;;;;;;-1.51;77.97;97151.48;109097;1275;22542;-82
2023/04/04 00:48:12;;;;;;;16.00;7.70;;;;;;;-1.55;78.02;97151.69;109118;1273;48835;-82
2023/04/04 00:50:40;;;;;;;8.70;4.60;;;;;;;-1.57;78.24;97151.14;109154;1275;22546;-82
2023/04/04 00:53:09;;;;;;;13.10;6.70;;;;;;;-1.56;78.48;97149.83;109151;1268;22528;-83
2023/04/04 00:55:39;;;;;;;15.60;6.90;;;;;;;-1.53;78.52;97148.95;109136;1275;22465;-82
2023/04/04 00:58:07;;;;;;;12.00;6.50;;;;;;;-1.49;78.92;97151.26;109100;1272;55743;-82
2023/04/04 01:00:37;;;;;;;11.40;6.20;;;;;;;-1.45;78.89;97149.16;109137;1269;22524;-83
2023/04/04 01:03:06;;;;;;;;;;;;;;;-1.46;78.65;97156.31;109139;1275;22557;-82
2023/04/04 01:05:34;;;;;;;13.20;8.00;;;;;;;-1.50;78.50;97150.05;109125;1275;22568;-83
2023/04/04 01:08:03;;;;;;;7.40;4.50;;;;;;;-1.51;78.67;97149.36;109067;1273;47203;-83
2023/04/04 01:10:32;;;;;;;13.50;7.00;;;;;;;-1.51;78.74;97155.97;109094;1265;22557;-83
2023/04/04 01:13:00;;;;;;;9.20;5.50;;;;;;;-1.50;79.05;97156.57;109110;1275;22542;-83
2023/04/04 01:15:29;;;;;;;12.80;6.60;;;;;;;-1.53;78.82;97155.08;109117;1272;22468;-83
2023/04/04 01:18:01;;;;;;;12.70;7.40;;;;;;;-1.53;79.21;97163.88;109107;1269;29053;-82
2023/04/04 01:20:33;;;;;;;13.00;7.40;;;;;;;-1.49;79.22;97164.58;109096;1275;24050;-82
2023/04/04 01:23:03;;;;;;;14.40;7.00;;;;;;;-1.43;79.39;97164.05;109092;1275;22491;-82
2023/04/04 01:25:32;;;;;;;12.30;6.80;;;;;;;-1.41;79.26;97163.48;109119;1275;22569;-82
2023/04/04 01:28:01;;;;;;;12.40;7.30;;;;;;;-1.42;79.26;97163.17;109030;1272;41953;-83
2023/04/04 01:30:33;;;;;;;14.10;7.40;;;;;;;-1.42;79.19;97163.57;109152;1269;22514;-82
2023/04/04 01:33:09;;;;;;;12.20;6.70;;;;;;;-1.45;79.15;97159.98;109156;1275;23294;-83
2023/04/04 01:35:43;;;;;;;12.10;7.10;;;;;;;-1.44;79.30;97161.08;109124;1275;22555;-82
2023/04/04 01:38:23;;;;;;;12.40;6.60;;;;;;;-1.41;79.46;97158.45;109127;1274;34338;-82
2023/04/04 01:40:57;;;;;;;14.20;7.40;;;;;;;-1.39;79.69;97162.02;109118;1275;22834;-82
2023/04/04 01:43:25;;;;;;;14.00;7.40;;;;;;;-1.36;79.49;97163.91;109131;1275;23768;-82
2023/04/04 01:45:53;;;;;;;11.20;6.40;;;;;;;-1.35;79.49;97162.55;109094;1275;22521;-82
2023/04/04 01:48:22;;;;;;;9.70;5.70;;;;;;;-1.38;79.49;97160.98;109090;1269;22596;-82
2023/04/04 01:50:51;;;;;;;11.00;5.60;;;;;;;-1.41;79.51;97161.15;109127;1275;23290;-83
2023/04/04 01:53:19;;;;;;;14.10;6.30;;;;;;;-1.42;79.41;97161.29;109100;1275;22569;-82
2023/04/04 01:55:48;;;;;;;11.00;5.90;;;;;;;-1.42;79.46;97162.66;109141;1275;22539;-82
2023/04/04 01:58:16;;;;;;;11.00;7.00;;;;;;;-1.41;79.67;97164.27;109096;1272;52751;-82
2023/04/04 02:00:45;;;;;;;12.20;6.40;;;;;;;-1.40;79.66;97163.56;109123;1253;22567;-82
2023/04/04 02:03:13;;;;;;;11.20;6.30;;;;;;;-1.41;79.46;97161.54;109127;1275;22501;-82
2023/04/04 02:05:41;;;;;;;11.90;5.70;;;;;;;-1.43;79.40;97158.69;109128;1272;22570;-82
2023/04/04 02:08:11;;;;;;;11.10;6.20;;;;;;;-1.44;79.56;97158.27;109059;1275;39790;-82
2023/04/04 02:10:41;;;;;;;10.30;6.00;;;;;;;-1.44;79.41;97157.20;109099;1272;23336;-82
2023/04/04 02:13:09;;;;;;;11.50;6.10;;;;;;;-1.45;79.42;97155.44;109127;1275;25382;-82
2023/04/04 02:15:38;;;;;;;10.60;5.30;;;;;;;-1.47;79.66;97152.46;109109;1275;22498;-82
2023/04/04 02:18:06;;;;;;;10.50;5.90;;;;;;;-1.51;79.48;97151.80;109124;1272;50034;-82
2023/04/04 02:20:35;;;;;;;10.50;5.90;;;;;;;-1.52;79.57;97158.89;109117;1275;23752;-82
2023/04/04 02:23:03;;;;;;;10.70;6.60;;;;;;;-1.53;79.60;97157.48;109137;1275;22490;-82
2023/04/04 02:25:31;;;;;;;10.60;5.70;;;;;;;-1.55;79.59;97160.14;109140;1275;23352;-82
2023/04/04 02:28:00;;;;;;;12.00;7.00;;;;;;;-1.55;79.58;97154.90;109050;1275;54338;-82
2023/04/04 02:30:28;;;;;;;11.00;6.00;;;;;;;-1.55;79.93;97149.70;109122;1275;24851;-82
2023/04/04 02:32:58;;;;;;;11.60;5.80;;;;;;;-1.57;79.76;97154.30;109121;1272;23776;-82
2023/04/04 02:35:27;;;;;;;11.30;5.50;;;;;;;-1.57;79.46;97154.98;109162;1275;23290;-82
2023/04/04 02:37:55;;;;;;;10.00;5.40;;;;;;;-1.62;79.72;97158.79;109085;1275;43894;-82
2023/04/04 02:40:23;;;;;;;10.90;5.80;;;;;;;-1.64;79.98;97155.61;109107;1275;22545;-82
2023/04/04 02:42:52;;;;;;;10.70;5.70;;;;;;;-1.65;79.82;97153.81;109125;1275;22531;-82
2023/04/04 02:45:21;;;;;;;12.70;5.60;;;;;;;-1.68;79.81;97151.15;109108;1275;22704;-81
2023/04/04 02:47:50;;;;;;;9.60;5.80;;;;;;;-1.69;79.92;97153.40;109104;1275;53779;-82
2023/04/04 02:50:19;;;;;;;9.70;5.70;;;;;;;-1.70;79.79;97152.44;109112;1275;22539;-82
2023/04/04 02:52:47;;;;;;;9.60;5.40;;;;;;;-1.72;79.70;97152.58;109176;1275;22540;-82
2023/04/04 02:55:15;;;;;;;9.40;5.90;;;;;;;-1.75;79.79;97154.96;109086;1275;23760;-82
2023/04/04 02:57:51;;;;;;;9.90;5.90;;;;;;;-1.75;79.74;97153.60;109011;1275;70100;-82
2023/04/04 03:00:20;;;;;;;10.70;5.60;;;;;;;-1.77;79.96;97147.07;109083;1275;22484;-82
2023/04/04 03:02:54;;;;;;;9.90;5.90;;;;;;;-1.79;80.07;97145.27;109137;1275;23878;-82
2023/04/04 03:05:25;;;;;;;12.00;6.10;;;;;;;-1.80;80.10;97146.61;109110;1275;22469;-82
2023/04/04 03:08:00;;;;;;;9.80;6.30;;;;;;;-1.82;79.90;97143.04;109029;1275;68579;-82
2023/04/04 03:10:29;;;;;;;8.80;5.40;;;;;;;-1.81;80.28;97145.69;109101;1275;23150;-82
2023/04/04 03:12:58;;;;;;;10.60;5.70;;;;;;;-1.81;80.11;97145.41;109120;1275;22455;-82
2023/04/04 03:15:27;;;;;;;10.40;5.60;;;;;;;-1.83;80.44;97144.63;109034;1275;25281;-82
2023/04/04 03:17:55;;;;;;;12.70;6.70;;;;;;;-1.81;80.38;97143.25;109071;1275;42301;-82
2023/04/04 03:20:23;;;;;;;12.30;5.60;;;;;;;-1.81;80.48;97144.56;109071;1271;22539;-82
2023/04/04 03:22:52;;;;;;;9.80;6.10;;;;;;;-1.80;80.47;97143.77;109117;1275;23653;-82
2023/04/04 03:25:20;;;;;;;11.80;6.30;;;;;;;-1.81;80.50;97138.77;109136;1269;25156;-82
2023/04/04 03:27:48;;;;;;;9.10;6.20;;;;;;;-1.83;80.76;97138.26;109069;1272;67626;-82
2023/04/04 03:30:17;;;;;;;12.80;6.30;;;;;;;-1.81;80.67;97134.58;109121;1275;23867;-82
2023/04/04 03:32:45;;;;;;;11.90;6.30;;;;;;;-1.82;80.68;97128.84;109128;1275;22557;-81
2023/04/04 03:35:13;;;;;;;11.10;6.60;;;;;;;-1.85;80.70;97126.36;109117;1253;22755;-82
2023/04/04 03:37:42;;;;;;;11.40;6.60;;;;;;;-1.86;80.68;97124.08;109061;1275;39543;-81
2023/04/04 03:40:12;;;;;;;8.10;4.70;;;;;;;-1.88;80.79;97117.34;109130;1275;22533;-81
2023/04/04 03:42:40;;;;;;;12.50;6.40;;;;;;;-1.89;80.74;97115.42;109208;1275;22516;-81
2023/04/04 03:45:10;;;;;;;11.30;6.90;;;;;;;-1.88;80.84;97119.42;109135;1275;22681;-81
2023/04/04 03:47:39;;;;;;;11.90;6.80;;;;;;;-1.88;80.73;97118.74;109107;1272;50206;-82
2023/04/04 03:50:11;;;;;;;11.70;6.10;;;;;;;-1.86;80.89;97118.59;109143;1272;22587;-81
2023/04/04 03:52:39;;;;;;;10.30;5.80;;;;;;;-1.89;80.71;97116.78;109178;1275;22569;-81
2023/04/04 03:55:09;;;;;;;12.20;6.30;;;;;;;-1.88;81.05;97113.10;109081;1275;22777;-81
2023/04/04 03:57:37;;;;;;;11.80;6.70;;;;;;;-1.87;81.11;97113.67;109111;1274;38099;-82
2023/04/04 04:00:08;;;;;;;10.80;6.00;;;;;;;-1.88;80.83;97108.79;109155;1275;24295;-81
2023/04/04 04:02:36;;;;;;;9.90;5.80;;;;;;;-1.88;81.02;97111.55;109114;1275;22613;-81
2023/04/04 04:05:06;;;;;;;10.20;6.00;;;;;;;-1.88;81.00;97117.70;109105;1275;22527;-82
2023/04/04 04:07:34;;;;;;;10.20;5.70;;;;;;;-1.87;81.16;97116.07;109080;1275;47107;-81
2023/04/04 04:10:04;;;;;;;11.60;6.20;;;;;;;-1.87;81.22;97115.55;109046;1275;22528;-81
2023/04/04 04:12:32;;;;;;;11.80;6.60;;;;;;;-1.86;81.23;97117.35;109080;1273;22565;-81
2023/04/04 04:15:01;;;;;;;10.80;5.60;;;;;;;-1.87;81.17;97114.15;109086;1275;25471;-81
2023/04/04 04:17:29;;;;;;;11.90;6.10;;;;;;;-1.88;81.30;97112.55;109059;1275;45249;-82
2023/04/04 04:19:57;;;;;;;10.30;6.70;;;;;;;-1.89;81.40;97111.06;109043;1270;22516;-81
2023/04/04 04:22:25;;;;;;;11.70;5.80;;;;;;;-1.88;81.41;97113.73;109111;1275;22520;-81
2023/04/04 04:24:54;;;;;;;11.20;6.60;;;;;;;-1.89;81.39;97111.95;109139;1275;23262;-81
2023/04/04 04:27:23;;;;;;;9.80;5.70;;;;;;;-1.88;81.66;97116.94;109074;1269;52015;-82
2023/04/04 04:29:51;;;;;;;11.70;6.90;;;;;;;-1.90;81.53;97116.45;109090;1275;24275;-81
2023/04/04 04:32:19;;;;;;;10.50;6.20;;;;;;;-1.88;81.56;97118.79;109088;1275;22659;-81
2023/04/04 04:34:48;;;;;;;11.00;6.20;;;;;;;-1.88;81.73;97116.30;109071;1272;24276;-81
2023/04/04 04:37:16;;;;;;;11.40;6.40;;;;;;;-1.88;81.88;97114.55;109016;1269;66009;-81
2023/04/04 04:39:45;;;;;;;9.40;5.60;;;;;;;-1.85;81.87;97116.60;109075;1275;22587;-81
2023/04/04 04:42:13;;;;;;;11.80;6.50;;;;;;;-1.81;81.96;97115.34;109139;1273;22496;-81
2023/04/04 04:44:42;;;;;;;13.00;6.00;;;;;;;-1.79;81.86;97114.39;109130;1275;22595;-82
2023/04/04 04:47:11;;;;;;;12.40;7.00;;;;;;;-1.77;81.93;97117.80;109046;1272;101546;-81
2023/04/04 04:49:41;;;;;;;11.90;6.00;;;;;;;-1.74;82.07;97122.37;109069;1272;22535;-81
2023/04/04 04:52:09;;;;;;;11.30;7.10;;;;;;;-1.75;81.88;97118.41;109076;1255;22561;-81
2023/04/04 04:54:38;;;;;;;10.90;6.30;;;;;;;-1.73;81.99;97121.90;109171;1275;22550;-81
2023/04/04 04:57:06;;;;;;;12.00;7.00;;;;;;;-1.73;82.05;97124.90;109089;1275;61247;-81
2023/04/04 04:59:35;;;;;;;11.10;6.70;;;;;;;-1.73;82.11;97124.38;109112;1275;24154;-82
2023/04/04 05:02:04;;;;;;;9.80;6.50;;;;;;;-1.72;81.98;97127.73;109079;1275;22564;-81
2023/04/04 05:04:35;;;;;;;10.90;6.40;;;;;;;-1.69;82.14;97125.54;109008;1275;23073;-81
2023/04/04 05:07:03;;;;;;;12.20;7.10;;;;;;;-1.69;82.35;97124.77;109041;1272;39793;-82
2023/04/04 05:09:32;;;;;;;13.00;6.70;;;;;;;-1.67;82.35;97126.69;109076;1275;23970;-82
2023/04/04 05:12:00;;;;;;;11.00;7.30;;;;;;;-1.63;82.34;97125.23;109070;1273;22563;-82
2023/04/04 05:14:28;;;;;;;10.10;6.60;;;;;;;-1.57;82.33;97123.50;109113;1275;22496;-82
2023/04/04 05:16:57;;;;;;;8.90;5.10;;;;;;;-1.54;82.56;97124.83;109058;1274;53942;-82
2023/04/04 05:19:26;;;;;;;12.50;6.90;;;;;;;-1.51;82.38;97124.48;109054;1275;23670;-82
2023/04/04 05:21:54;;;;;;;13.20;7.00;;;;;;;-1.48;82.37;97126.90;109115;1275;23007;-82
2023/04/04 05:24:22;;;;;;;11.20;6.90;;;;;;;-1.47;82.40;97124.02;109137;1275;22496;-82
2023/04/04 05:26:51;;;;;;;11.40;6.90;;;;;;;-1.44;82.44;97125.99;109058;1273;60007;-81
2023/04/04 05:29:19;;;;;;;12.30;6.60;;;;;;;-1.39;82.58;97122.69;109123;1272;23330;-81
2023/04/04 05:31:48;;;;;;;13.40;6.90;;;;;;;-1.33;82.63;97127.11;109103;1275;22626;-81
2023/04/04 05:34:16;;;;;;;11.90;6.90;;;;;;;-1.29;82.56;97124.10;109115;1275;22509;-81
2023/04/04 05:36:45;;;;;;;13.90;7.50;;;;;;;-1.25;82.26;97127.07;109116;1275;32829;-81
2023/04/04 05:39:15;;;;;;;13.00;7.80;;;;;;;-1.20;82.71;97129.96;109134;1275;22485;-81
2023/04/04 05:41:43;;;;;;;11.80;7.20;;;;;;;-1.13;82.46;97133.94;109113;1275;22505;-81
2023/04/04 05:44:11;;;;;;;8.00;4.60;;;;;;;-1.07;82.11;97130.41;109127;1271;23377;-81
2023/04/04 05:46:40;;;;;;;10.30;6.70;;;;;;;-0.99;82.44;97134.45;109049;1275;59682;-81
2023/04/04 05:49:08;;;;;;;10.80;6.40;;;;;;;-0.95;82.24;97136.52;109073;1270;22608;-81
2023/04/04 05:51:37;;;;;;;12.60;6.90;;;;;;;-0.90;82.10;97139.02;109115;1273;25287;-81
2023/04/04 05:54:06;;;;;;;9.90;6.20;;;;;;;-0.84;81.80;97139.73;109100;1273;24665;-81
2023/04/04 05:56:35;;;;;;;9.90;6.30;;;;;;;-0.80;81.65;97138.44;109071;1275;62494;-81
2023/04/04 05:59:04;;;;;;;11.70;6.80;;;;;;;-0.75;81.19;97138.13;109127;1264;22570;-81
2023/04/04 06:01:32;;;;;;;10.20;6.30;;;;;;;-0.66;81.67;97142.06;109061;1270;25345;-82
2023/04/04 06:04:01;;;;;;;10.40;6.90;;;;;;;-0.54;81.57;97138.50;109015;1272;22546;-82
2023/04/04 06:06:30;;;;;;;11.00;6.60;;;;;;;-0.48;81.31;97140.56;109023;1275;45556;-82
2023/04/04 06:08:58;;;;;;;11.00;7.30;;;;;;;-0.47;81.14;97142.41;109082;1275;22481;-82
2023/04/04 06:11:26;;;;;;;11.80;6.90;;;;;;;-0.47;81.27;97139.68;109060;1270;22523;-81
2023/04/04 06:13:55;;;;;;;10.20;6.30;;;;;;;-0.46;80.89;97141.94;109107;1275;22579;-82
2023/04/04 06:16:23;;;;;;;12.60;7.10;;;;;;;-0.44;81.01;97141.86;109065;1275;52942;-82
2023/04/04 06:18:52;;;;;;;11.40;6.70;;;;;;;-0.39;81.10;97144.45;109138;1275;22591;-82
2023/04/04 06:21:20;;;;;;;11.00;7.30;;;;;;;-0.33;80.97;97142.73;109107;1275;23703;-82
2023/04/04 06:23:48;;;;;;;10.70;7.20;;;;;;;-0.23;80.81;97138.85;109136;1270;24076;-82
2023/04/04 06:26:17;;;;;;;12.00;6.10;;;;;;;-0.18;80.71;97139.58;108998;1273;59374;-82
2023/04/04 06:28:48;;;;;;;11.20;6.50;;;;;;;-0.16;80.52;97142.34;109116;1275;22778;-82
2023/04/04 06:31:17;;;;;;;12.70;6.90;;;;;;;-0.13;80.47;97140.83;109117;1275;22581;-82
2023/04/04 06:33:45;;;;;;;10.30;7.20;;;;;;;-0.06;80.32;97139.97;109100;1275;22568;-82
2023/04/04 06:36:14;;;;;;;10.70;6.70;;;;;;;0.07;80.27;97136.54;109033;1275;79375;-83
2023/04/04 06:38:42;;;;;;;7.20;4.80;;;;;;;0.16;80.14;97134.63;109148;1275;22684;-82
2023/04/04 06:41:11;;;;;;;10.90;7.40;;;;;;;0.23;80.09;97129.58;109087;1274;23126;-82
2023/04/04 06:43:39;;;;;;;9.40;6.10;;;;;;;0.35;80.03;97127.89;109193;1275;22581;-82
2023/04/04 06:46:08;;;;;;;11.60;6.60;;;;;;;0.43;79.71;97131.67;109088;1270;43128;-83
2023/04/04 06:48:36;;;;;;;9.70;6.20;;;;;;;0.35;78.96;97127.26;109118;1264;22537;-82
2023/04/04 06:51:07;;;;;;;10.60;6.20;;;;;;;0.21;78.91;97126.16;109087;1268;22609;-82
2023/04/04 06:53:36;;;;;;;10.40;6.80;;;;;;;0.11;78.92;97124.74;109081;1275;22521;-83
2023/04/04 06:56:06;;;;;;;8.80;6.00;;;;;;;0.05;79.00;97125.39;109050;1273;64946;-83
2023/04/04 06:58:33;;;;;;;;;;;;;;;0.03;78.91;97125.15;109153;1275;23318;-82
2023/04/04 07:01:02;;;;;;;9.50;6.60;;;;;;;0.01;79.16;97124.84;109139;1275;22475;-82
2023/04/04 07:03:31;;;;;;;10.00;6.40;;;;;;;0.06;79.01;97127.52;109132;1275;22562;-82
2023/04/04 07:06:05;;;;;;;9.50;6.40;;;;;;;0.14;79.51;97123.52;107585;1272;2061796;-83
2023/04/04 07:08:33;;;;;;;10.60;6.40;;;;;;;0.23;79.36;97124.84;109153;1270;22500;-82
2023/04/04 07:11:02;;;;;;;11.10;6.70;;;;;;;0.29;79.01;97123.61;109128;1275;25125;-82
2023/04/04 07:13:33;;;;;;;11.00;7.00;;;;;;;0.38;79.39;97123.68;109115;1275;22569;-82
2023/04/04 07:16:02;;;;;;;12.70;7.20;;;;;;;0.54;79.40;97117.42;109006;1273;58724;-82
2023/04/04 07:18:31;;;;;;;9.80;7.20;;;;;;;0.64;79.08;97122.98;109116;1254;22688;-82
2023/04/04 07:20:59;;;;;;;9.70;6.80;;;;;;;0.66;78.58;97124.30;109133;1275;22605;-82
2023/04/04 07:23:28;;;;;;;12.00;6.90;;;;;;;0.56;78.21;97121.70;109130;1275;22538;-82
2023/04/04 07:25:56;;;;;;;9.50;6.20;;;;;;;0.61;78.22;97122.15;109141;1275;22536;-82
2023/04/04 07:28:24;;;;;;;9.30;6.30;;;;;;;0.67;78.31;97125.06;109149;1257;22600;-82
2023/04/04 07:30:53;;;;;;;9.80;6.20;;;;;;;0.66;78.18;97128.12;109116;1275;22883;-82
2023/04/04 07:33:21;;;;;;;10.10;6.90;;;;;;;0.64;78.09;97129.45;109100;1272;22534;-82
2023/04/04 07:35:51;;;;;;;9.60;6.30;;;;;;;0.61;77.92;97140.94;109150;1270;22072;-81
2023/04/04 07:38:19;;;;;;;10.50;6.40;;;;;;;0.78;78.41;97138.46;109086;1275;58732;-81
2023/04/04 07:40:49;;;;;;;9.90;5.80;;;;;;;1.04;77.86;97138.45;109117;1275;22528;-82
2023/04/04 07:43:17;;;;;;;9.20;6.10;;;;;;;1.12;77.31;97142.09;109098;1275;22476;-82
2023/04/04 07:45:46;;;;;;;9.70;6.20;;;;;;;1.13;77.06;97143.73;109126;1275;22735;-82
2023/04/04 07:48:14;;;;;;;10.50;6.80;;;;;;;1.14;76.95;97147.00;109089;1270;60582;-82
2023/04/04 07:50:43;;;;;;;10.80;6.00;;;;;;;1.18;76.83;97149.55;109135;1270;22474;-82
2023/04/04 07:53:11;;;;;;;9.70;6.40;;;;;;;1.19;76.63;97147.45;109115;1273;22499;-82
2023/04/04 07:55:39;;;;;;;9.20;7.00;;;;;;;1.22;76.51;97144.75;109651;1254;22474;-82
2023/04/04 07:58:08;;;;;;;10.00;6.90;;;;;;;1.42;76.88;97139.10;109617;1269;50243;-82
2023/04/04 08:00:36;;;;;;;10.20;6.50;;;;;;;1.55;76.53;97140.34;109660;1269;22481;-82
2023/04/04 08:03:07;;;;;;;10.40;7.00;;;;;;;1.73;76.27;97138.09;109634;1269;24924;-82
2023/04/04 08:05:35;;;;;;;9.90;6.90;;;;;;;1.75;75.85;97140.89;109670;1264;22472;-82
2023/04/04 08:08:04;;;;;;;8.20;4.70;;;;;;;1.79;75.89;97141.27;109692;1269;70322;-82
2023/04/04 08:10:33;;;;;;;10.40;7.10;;;;;;;1.74;75.35;97138.24;109664;1262;23372;-82
2023/04/04 08:13:03;;;;;;;10.10;5.90;;;;;;;1.91;75.52;97135.02;109611;1269;23303;-82
2023/04/04 08:15:31;;;;;;;8.90;6.30;;;;;;;1.94;74.52;97138.66;109653;1269;22591;-82
2023/04/04 08:18:00;;;;;;;9.20;6.10;;;;;;;1.84;74.29;97138.52;109637;1269;61400;-82
2023/04/04 08:20:29;;;;;;;8.30;5.90;;;;;;;1.87;74.20;97142.04;109647;1263;24177;-82
2023/04/04 08:22:57;;;;;;;10.00;5.80;;;;;;;1.97;73.90;97140.17;109569;1246;22752;-83
2023/04/04 08:25:26;;;;;;;11.20;6.60;;;;;;;2.04;73.95;97141.45;109707;1269;22596;-82
2023/04/04 08:27:54;;;;;;;9.60;6.90;;;;;;;2.31;74.24;97134.11;109695;1269;55406;-82
2023/04/04 08:30:22;;;;;;;9.20;6.00;;;;;;;3.10;74.93;97130.78;109654;1264;25432;-83
2023/04/04 08:32:51;;;;;;;10.10;6.30;;;;;;;3.69;73.44;97134.34;109648;1260;22764;-83
2023/04/04 08:35:19;;;;;;;10.00;6.50;;;;;;;3.56;71.36;97131.79;109643;1269;23276;-83
2023/04/04 08:37:47;;;;;;;12.10;6.60;;;;;;;3.41;71.13;97128.70;109631;1264;75221;-83
2023/04/04 08:40:16;;;;;;;8.50;5.60;;;;;;;3.78;71.20;97129.34;109683;1269;23358;-83
2023/04/04 08:42:46;;;;;;;7.20;5.40;;;;;;;4.61;72.18;97120.70;109705;1264;22554;-83
2023/04/04 08:45:17;;;;;;;9.50;5.90;;;;;;;6.65;72.15;97120.23;109718;1263;22497;-83
2023/04/04 08:47:47;;;;;;;9.10;5.90;;;;;;;7.47;68.87;97116.91;109630;1265;60197;-83
2023/04/04 08:50:16;;;;;;;8.80;5.20;;;;;;;7.46;67.59;97119.05;109675;1263;22567;-84
2023/04/04 08:52:46;;;;;;;8.00;5.30;;;;;;;8.38;67.78;97120.59;109612;1269;22608;-85
2023/04/04 08:55:15;;;;;;;8.10;5.80;;;;;;;8.81;65.40;97120.59;109725;1269;22497;-85
2023/04/04 08:57:43;;;;;;;8.30;5.90;;;;;;;8.56;63.99;97121.97;109493;1269;48355;-84
2023/04/04 09:00:15;;;;;;;10.10;5.50;;;;;;;7.64;62.57;97124.90;109701;1269;22554;-85
2023/04/04 09:02:49;;;;;;;7.80;5.30;;;;;;;6.84;62.88;97129.61;109722;1269;23671;-85
2023/04/04 09:05:18;;;;;;;7.90;5.40;;;;;;;6.31;62.75;97125.33;109675;1269;22602;-84
2023/04/04 09:07:49;;;;;;;9.80;5.30;;;;;;;5.54;61.97;97117.54;109648;1262;59512;-84
2023/04/04 09:10:17;;;;;;;9.00;5.60;;;;;;;4.93;63.02;97113.95;109675;1266;22636;-84
2023/04/04 09:12:47;;;;;;;6.80;3.80;;;;;;;4.59;63.40;97113.25;109699;1269;22583;-84
2023/04/04 09:15:16;;;;;;;8.50;5.30;;;;;;;4.28;63.29;97112.77;109691;1263;25306;-83
2023/04/04 09:17:44;;;;;;;7.70;5.20;;;;;;;4.10;64.02;97112.77;109578;1269;94826;-83
2023/04/04 09:20:35;;;;;;;11.90;5.30;;;;;;;3.94;64.04;97115.73;109668;1263;25480;-84
2023/04/04 09:23:07;;;;;;;7.80;4.80;;;;;;;3.83;64.55;97120.94;109643;1269;25322;-83
2023/04/04 09:25:37;;;;;;;7.90;4.80;;;;;;;3.84;64.45;97117.54;109662;1263;25317;-83
2023/04/04 09:28:06;;;;;;;7.10;4.80;;;;;;;3.94;64.55;97114.60;109663;1264;50296;-83
2023/04/04 09:30:35;;;;;;;8.00;4.90;;;;;;;4.22;64.84;97108.79;109698;1262;22956;-84
2023/04/04 09:33:04;;;;;;;7.90;5.20;;;;;;;4.56;64.85;97110.59;109675;1269;22516;-84
2023/04/04 09:35:36;;;;;;;8.70;5.50;;;;;;;4.97;64.78;97101.80;109675;1269;22536;-85
2023/04/04 09:38:06;;;;;;;7.50;5.20;;;;;;;5.26;63.57;97097.78;109622;1268;109245;-84
2023/04/04 09:40:36;;;;;;;7.50;5.10;;;;;;;5.34;62.43;97096.96;109687;1269;22522;-84
2023/04/04 09:43:06;;;;;;;7.50;4.10;;;;;;;5.18;60.42;97096.73;109675;1269;24295;-85
2023/04/04 09:45:36;;;;;;;7.00;3.90;;;;;;;5.02;58.89;97098.12;109699;1269;22586;-85
2023/04/04 09:48:07;;;;;;;7.20;5.10;;;;;;;4.61;58.52;97097.02;109579;1265;41139;-83
2023/04/04 09:50:36;;;;;;;7.20;4.40;;;;;;;4.55;59.75;97096.55;109692;1269;22451;-84
2023/04/04 09:53:04;;;;;;;6.40;4.30;;;;;;;4.68;58.63;97096.18;109665;1263;22707;-84
2023/04/04 09:55:35;;;;;;;5.30;3.50;;;;;;;4.85;59.64;97096.48;109681;1269;22526;-84
2023/04/04 09:58:13;;;;;;;5.00;3.50;;;;;;;5.12;59.03;97096.96;109615;1269;35120;-85
2023/04/04 10:00:47;;;;;;;3.90;2.70;;;;;;;5.27;57.53;97099.39;109708;1269;23340;-84
2023/04/04 10:03:16;;;;;;;5.00;3.70;;;;;;;5.41;57.16;97093.25;109666;1269;22545;-85
2023/04/04 10:05:46;;;;;;;6.90;3.90;;;;;;;5.58;56.19;97089.86;109665;1263;25870;-84
2023/04/04 10:08:16;;;;;;;6.70;4.10;;;;;;;5.15;53.86;97088.09;109564;1269;46206;-83
2023/04/04 10:10:51;;;;;;;6.90;4.60;;;;;;;4.80;54.95;97087.04;109723;1262;22492;-83
2023/04/04 10:13:27;;;;;;;6.00;3.80;;;;;;;4.65;56.77;97087.48;109684;1269;22653;-83
2023/04/04 10:15:57;;;;;;;6.40;3.80;;;;;;;4.79;57.06;97084.92;109662;1269;22518;-82
2023/04/04 10:18:27;;;;;;;5.10;3.40;;;;;;;4.84;57.29;97087.91;109714;1247;22549;-83
2023/04/04 10:20:56;;;;;;;7.40;4.00;;;;;;;4.78;56.11;97093.04;109701;1269;22638;-83
2023/04/04 10:23:26;;;;;;;;;;;;;;;4.82;57.14;97092.49;109674;1269;22502;-83
2023/04/04 10:25:54;;;;;;;4.60;3.00;;;;;;;5.18;56.56;97088.80;109672;1266;22732;-83
2023/04/04 10:28:24;;;;;;;4.60;3.10;;;;;;;5.21;56.22;97090.11;109650;1269;52098;-83
2023/04/04 10:31:00;;;;;;;5.30;3.70;;;;;;;5.21;55.71;97086.12;109518;1269;198304;-83
2023/04/04 10:33:38;;;;;;;5.40;2.90;;;;;;;5.08;54.90;97085.39;109672;1269;24364;-83
2023/04/04 10:36:08;;;;;;;4.20;3.00;;;;;;;4.81;53.85;97078.29;109610;1269;51901;-83
2023/04/04 10:38:42;;;;;;;6.70;3.10;;;;;;;4.52;54.55;97072.98;109698;1265;23081;-82
2023/04/04 10:41:12;;;;;;;5.40;3.10;;;;;;;4.84;55.54;97076.13;109655;1256;22884;-83
2023/04/04 10:43:44;;;;;;;3.80;2.80;;;;;;;5.41;54.96;97066.48;109668;1269;22549;-83
2023/04/04 10:46:18;;;;;;;3.40;2.60;;;;;;;5.76;54.28;97065.98;109635;1269;68880;-84
2023/04/04 10:48:48;;;;;;;5.00;2.80;;;;;;;5.73;53.71;97073.80;109741;1269;22554;-84
2023/04/04 10:51:17;;;;;;;3.30;2.80;;;;;;;5.57;53.24;97070.16;109669;1269;22644;-84
2023/04/04 10:53:45;;;;;;;3.20;2.40;;;;;;;5.34;52.14;97068.71;109716;1269;24149;-83
2023/04/04 10:56:15;;;;;;;4.00;2.70;;;;;;;4.83;51.59;97066.98;109580;1269;26571;-83
2023/04/04 10:58:43;;;;;;;;;;;;;;;4.50;51.62;97064.25;109712;1263;25266;-84
2023/04/04 11:01:19;;;;;;;3.40;2.70;;;;;;;4.22;52.10;97075.71;109668;1262;22543;-83
2023/04/04 11:04:22;;;;;;;3.70;2.60;;;;;;;4.33;53.11;97072.84;109704;1269;22566;-83
2023/04/04 11:07:11;;;;;;;6.60;2.90;;;;;;;4.51;52.87;97068.27;108886;1270;50449;-83
2023/04/04 11:09:53;;;;;;;4.70;3.50;;;;;;;4.17;52.57;97070.20;108992;1271;22672;-83
2023/04/04 11:12:26;;;;;;;5.40;3.40;;;;;;;3.99;53.00;97066.98;109653;1269;22475;-83
2023/04/04 11:15:08;;;;;;;4.10;2.90;;;;;;;4.02;53.65;97066.83;109696;1269;22478;-83
2023/04/04 11:17:42;;;;;;;3.60;2.80;;;;;;;3.99;53.12;97067.60;109764;1247;34528;-83
2023/04/04 11:20:14;;;;;;;5.40;3.40;;;;;;;3.88;53.97;97066.55;109772;1269;23302;-83
2023/04/04 11:22:44;;;;;;;5.30;3.10;;;;;;;3.74;53.98;97074.48;109690;1269;25191;-83
2023/04/04 11:25:34;;;;;;;4.20;3.00;;;;;;;3.68;54.18;97071.56;109694;1269;22547;-83
2023/04/04 11:28:08;;;;;;;4.20;3.10;;;;;;;3.81;54.68;97070.89;109647;1269;58636;-83
2023/04/04 11:30:47;;;;;;;5.10;2.90;;;;;;;4.06;54.62;97070.63;109717;1262;22526;-84
2023/04/04 11:33:29;;;;;;;4.10;3.00;;;;;;;4.38;54.42;97065.45;109704;1269;22542;-84
2023/04/04 11:36:05;;;;;;;5.20;3.40;;;;;;;4.50;53.85;97060.05;109619;1269;24232;-83